sensor_id;sensor_type;location;lat;lon;timestamp;pressure;altitude;pressure_sealevel;temperature;humidity
68793;BME280;55778;54.346;10.210;2023-04-27T00:01:30;101392.75;;;2.84;100.00
68793;BME280;55778;54.346;10.210;2023-04-27T00:03:56;101383.94;;;2.65;100.00
68793;BME280;55778;54.346;10.210;2023-04-27T00:06:22;101386.13;;;2.74;100.00
68793;BME280;55778;54.346;10.210;2023-04-27T00:08:48;101387.31;;;2.69;100.00
68793;BME280;55778;54.346;10.210;2023-04-27T00:11:13;101383.53;;;2.73;100.00
68793;BME280;55778;54.346;10.210;2023-04-27T00:13:39;101379.88;;;2.74;100.00
68793;BME280;55778;54.346;10.210;2023-04-27T00:16:04;101383.94;;;2.65;100.00
68793;BME280;55778;54.346;10.210;2023-04-27T00:18:31;101394.28;;;2.73;100.00
68793;BME280;55778;54.346;10.210;2023-04-27T00:20:57;101384.63;;;2.69;100.00
68793;BME280;55778;54.346;10.210;2023-04-27T00:23:22;101379.63;;;2.78;100.00
68793;BME280;55778;54.346;10.210;2023-04-27T00:25:48;101380.59;;;2.77;100.00
68793;BME280;55778;54.346;10.210;2023-04-27T00:28:13;101385.41;;;2.71;100.00
68793;BME280;55778;54.346;10.210;2023-04-27T00:30:38;101375.84;;;2.65;100.00
68793;BME280;55778;54.346;10.210;2023-04-27T00:33:04;101375.47;;;2.56;100.00
68793;BME280;55778;54.346;10.210;2023-04-27T00:35:31;101367.53;;;2.53;100.00
68793;BME280;55778;54.346;10.210;2023-04-27T00:37:57;101373.47;;;2.42;100.00
68793;BME280;55778;54.346;10.210;2023-04-27T00:40:22;101369.31;;;2.54;100.00
68793;BME280;55778;54.346;10.210;2023-04-27T00:42:48;101373.56;;;2.41;100.00
68793;BME280;55778;54.346;10.210;2023-04-27T00:45:13;101372.72;;;2.40;100.00
68793;BME280;55778;54.346;10.210;2023-04-27T00:47:39;101380.22;;;2.34;100.00
68793;BME280;55778;54.346;10.210;2023-04-27T00:50:04;101372.94;;;2.36;100.00
68793;BME280;55778;54.346;10.210;2023-04-27T00:52:37;101382.03;;;2.33;100.00
68793;BME280;55778;54.346;10.210;2023-04-27T00:55:03;101387.63;;;2.29;100.00
68793;BME280;55778;54.346;10.210;2023-04-27T00:57:29;101387.09;;;2.22;100.00
68793;BME280;55778;54.346;10.210;2023-04-27T00:59:55;101381.41;;;2.28;100.00
68793;BME280;55778;54.346;10.210;2023-04-27T01:02:20;101377.28;;;2.21;100.00
68793;BME280;55778;54.346;10.210;2023-04-27T01:04:47;101381.78;;;2.38;100.00
68793;BME280;55778;54.346;10.210;2023-04-27T01:07:14;101390.91;;;2.52;100.00
68793;BME280;55778;54.346;10.210;2023-04-27T01:09:40;101386.56;;;2.33;100.00
68793;BME280;55778;54.346;10.210;2023-04-27T01:12:06;101388.13;;;2.20;100.00
68793;BME280;55778;54.346;10.210;2023-04-27T01:14:32;101386.94;;;2.25;100.00
68793;BME280;55778;54.346;10.210;2023-04-27T01:16:57;101394.66;;;2.14;100.00
68793;BME280;55778;54.346;10.210;2023-04-27T01:19:23;101397.84;;;2.22;100.00
68793;BME280;55778;54.346;10.210;2023-04-27T01:21:48;101405.03;;;2.04;100.00
68793;BME280;55778;54.346;10.210;2023-04-27T01:24:13;101400.44;;;2.06;100.00
68793;BME280;55778;54.346;10.210;2023-04-27T01:26:39;101397.59;;;2.09;100.00
68793;BME280;55778;54.346;10.210;2023-04-27T01:29:04;101395.84;;;2.08;100.00
68793;BME280;55778;54.346;10.210;2023-04-27T01:31:30;101402.84;;;2.30;100.00
68793;BME280;55778;54.346;10.210;2023-04-27T01:33:55;101413.78;;;2.08;100.00
68793;BME280;55778;54.346;10.210;2023-04-27T01:36:21;101403.75;;;2.12;100.00
68793;BME280;55778;54.346;10.210;2023-04-27T01:38:46;101407.34;;;2.12;100.00
68793;BME280;55778;54.346;10.210;2023-04-27T01:41:11;101398.69;;;2.05;100.00
68793;BME280;55778;54.346;10.210;2023-04-27T01:43:37;101401.09;;;1.93;100.00
68793;BME280;55778;54.346;10.210;2023-04-27T01:46:10;101405.97;;;2.03;100.00
68793;BME280;55778;54.346;10.210;2023-04-27T01:48:37;101411.75;;;2.13;100.00
68793;BME280;55778;54.346;10.210;2023-04-27T01:51:03;101409.69;;;2.01;100.00
68793;BME280;55778;54.346;10.210;2023-04-27T01:53:29;101415.13;;;1.99;100.00
68793;BME280;55778;54.346;10.210;2023-04-27T01:55:55;101413.78;;;2.08;100.00
68793;BME280;55778;54.346;10.210;2023-04-27T01:58:20;101408.19;;;2.13;100.00
68793;BME280;55778;54.346;10.210;2023-04-27T02:00:46;101413.03;;;2.06;100.00
68793;BME280;55778;54.346;10.210;2023-04-27T02:03:11;101415.16;;;2.17;100.00
68793;BME280;55778;54.346;10.210;2023-04-27T02:05:36;101415.47;;;2.11;100.00
68793;BME280;55778;54.346;10.210;2023-04-27T02:08:02;101422.81;;;2.07;100.00
68793;BME280;55778;54.346;10.210;2023-04-27T02:10:27;101426.31;;;2.09;100.00
68793;BME280;55778;54.346;10.210;2023-04-27T02:12:52;101421.31;;;2.01;100.00
68793;BME280;55778;54.346;10.210;2023-04-27T02:15:18;101427.53;;;2.02;100.00
68793;BME280;55778;54.346;10.210;2023-04-27T02:17:43;101425.56;;;2.05;100.00
68793;BME280;55778;54.346;10.210;2023-04-27T02:20:09;101431.91;;;2.04;100.00
68793;BME280;55778;54.346;10.210;2023-04-27T02:22:35;101431.25;;;1.99;100.00
68793;BME280;55778;54.346;10.210;2023-04-27T02:25:02;101424.00;;;2.01;100.00
68793;BME280;55778;54.346;10.210;2023-04-27T02:27:27;101435.38;;;2.06;100.00
68793;BME280;55778;54.346;10.210;2023-04-27T02:29:52;101430.16;;;2.03;100.00
68793;BME280;55778;54.346;10.210;2023-04-27T02:32:21;101427.28;;;1.89;100.00
68793;BME280;55778;54.346;10.210;2023-04-27T02:34:46;101436.84;;;1.95;100.00
68793;BME280;55778;54.346;10.210;2023-04-27T02:37:12;101437.00;;;1.92;100.00
68793;BME280;55778;54.346;10.210;2023-04-27T02:39:38;101437.81;;;1.75;100.00
68793;BME280;55778;54.346;10.210;2023-04-27T02:42:03;101441.31;;;1.77;100.00
68793;BME280;55778;54.346;10.210;2023-04-27T02:44:28;101440.50;;;1.94;100.00
68793;BME280;55778;54.346;10.210;2023-04-27T02:46:54;101436.97;;;1.75;100.00
68793;BME280;55778;54.346;10.210;2023-04-27T02:49:19;101436.41;;;1.85;100.00
68793;BME280;55778;54.346;10.210;2023-04-27T02:51:47;101441.00;;;1.83;100.00
68793;BME280;55778;54.346;10.210;2023-04-27T02:54:13;101437.38;;;1.84;100.00
68793;BME280;55778;54.346;10.210;2023-04-27T02:56:38;101434.31;;;1.92;100.00
68793;BME280;55778;54.346;10.210;2023-04-27T02:59:03;101427.50;;;1.85;100.00
68793;BME280;55778;54.346;10.210;2023-04-27T03:01:29;101426.84;;;1.98;100.00
68793;BME280;55778;54.346;10.210;2023-04-27T03:03:54;101429.38;;;2.01;100.00
68793;BME280;55778;54.346;10.210;2023-04-27T03:06:19;101431.41;;;1.96;100.00
68793;BME280;55778;54.346;10.210;2023-04-27T03:08:45;101429.53;;;1.80;100.00
68793;BME280;55778;54.346;10.210;2023-04-27T03:11:10;101432.66;;;1.89;100.00
68793;BME280;55778;54.346;10.210;2023-04-27T03:13:36;101421.19;;;1.86;100.00
68793;BME280;55778;54.346;10.210;2023-04-27T03:16:09;101439.13;;;1.67;100.00
68793;BME280;55778;54.346;10.210;2023-04-27T03:18:38;101442.84;;;1.64;100.00
68793;BME280;55778;54.346;10.210;2023-04-27T03:21:08;101446.75;;;1.57;100.00
68793;BME280;55778;54.346;10.210;2023-04-27T03:23:33;101444.06;;;1.39;100.00
68793;BME280;55778;54.346;10.210;2023-04-27T03:25:59;101450.47;;;1.36;100.00
68793;BME280;55778;54.346;10.210;2023-04-27T03:28:25;101451.53;;;1.32;100.00
68793;BME280;55778;54.346;10.210;2023-04-27T03:30:50;101454.00;;;1.37;100.00
68793;BME280;55778;54.346;10.210;2023-04-27T03:33:16;101454.38;;;1.48;100.00
68793;BME280;55778;54.346;10.210;2023-04-27T03:35:42;101454.44;;;1.65;100.00
68793;BME280;55778;54.346;10.210;2023-04-27T03:38:07;101463.00;;;1.54;100.00
68793;BME280;55778;54.346;10.210;2023-04-27T03:40:33;101462.66;;;1.43;100.00
68793;BME280;55778;54.346;10.210;2023-04-27T03:42:58;101468.59;;;1.50;100.00
68793;BME280;55778;54.346;10.210;2023-04-27T03:45:24;101473.59;;;1.57;100.00
68793;BME280;55778;54.346;10.210;2023-04-27T03:47:49;101466.75;;;1.70;100.00
68793;BME280;55778;54.346;10.210;2023-04-27T03:50:14;101465.91;;;1.50;100.00
68793;BME280;55778;54.346;10.210;2023-04-27T03:52:40;101467.38;;;1.57;100.00
68793;BME280;55778;54.346;10.210;2023-04-27T03:55:06;101477.38;;;1.53;100.00
68793;BME280;55778;54.346;10.210;2023-04-27T03:57:31;101474.03;;;1.48;100.00
68793;BME280;55778;54.346;10.210;2023-04-27T03:59:57;101469.91;;;1.41;100.00
68793;BME280;55778;54.346;10.210;2023-04-27T04:02:23;101471.59;;;1.44;100.00
68793;BME280;55778;54.346;10.210;2023-04-27T04:04:48;101472.00;;;1.53;100.00
68793;BME280;55778;54.346;10.210;2023-04-27T04:07:13;101465.41;;;1.60;100.00
68793;BME280;55778;54.346;10.210;2023-04-27T04:09:39;101469.97;;;1.77;100.00
68793;BME280;55778;54.346;10.210;2023-04-27T04:12:05;101463.31;;;1.67;100.00
68793;BME280;55778;54.346;10.210;2023-04-27T04:14:30;101470.13;;;1.74;100.00
68793;BME280;55778;54.346;10.210;2023-04-27T04:16:56;101463.09;;;1.71;100.00
68793;BME280;55778;54.346;10.210;2023-04-27T04:19:21;101473.41;;;1.80;100.00
68793;BME280;55778;54.346;10.210;2023-04-27T04:21:46;101468.31;;;1.74;100.00
68793;BME280;55778;54.346;10.210;2023-04-27T04:24:12;101482.72;;;1.73;100.00
68793;BME280;55778;54.346;10.210;2023-04-27T04:26:37;101476.16;;;1.79;100.00
68793;BME280;55778;54.346;10.210;2023-04-27T04:29:03;101473.03;;;1.88;100.00
68793;BME280;55778;54.346;10.210;2023-04-27T04:31:29;101468.06;;;1.97;100.00
68793;BME280;55778;54.346;10.210;2023-04-27T04:33:54;101477.97;;;1.97;100.00
68793;BME280;55778;54.346;10.210;2023-04-27T04:36:20;101468.94;;;1.98;100.00
68793;BME280;55778;54.346;10.210;2023-04-27T04:38:45;101478.00;;;2.14;100.00
68793;BME280;55778;54.346;10.210;2023-04-27T04:41:11;101478.31;;;2.08;100.00
68793;BME280;55778;54.346;10.210;2023-04-27T04:43:36;101482.03;;;2.05;100.00
68793;BME280;55778;54.346;10.210;2023-04-27T04:46:02;101485.16;;;1.96;100.00
68793;BME280;55778;54.346;10.210;2023-04-27T04:48:27;101488.66;;;1.98;100.00
68793;BME280;55778;54.346;10.210;2023-04-27T04:50:53;101482.13;;;2.21;100.00
68793;BME280;55778;54.346;10.210;2023-04-27T04:53:18;101489.63;;;2.15;100.00
68793;BME280;55778;54.346;10.210;2023-04-27T04:55:44;101489.50;;;2.18;100.00
68793;BME280;55778;54.346;10.210;2023-04-27T04:58:09;101492.13;;;2.36;100.00
68793;BME280;55778;54.346;10.210;2023-04-27T05:00:34;101488.44;;;2.39;100.00
68793;BME280;55778;54.346;10.210;2023-04-27T05:03:00;101489.56;;;2.52;100.00
68793;BME280;55778;54.346;10.210;2023-04-27T05:05:26;101487.41;;;2.58;100.00
68793;BME280;55778;54.346;10.210;2023-04-27T05:07:51;101493.13;;;2.52;100.00
68793;BME280;55778;54.346;10.210;2023-04-27T05:10:17;101484.63;;;2.60;100.00
68793;BME280;55778;54.346;10.210;2023-04-27T05:12:42;101474.13;;;2.72;100.00
68793;BME280;55778;54.346;10.210;2023-04-27T05:15:08;101485.31;;;2.82;100.00
68793;BME280;55778;54.346;10.210;2023-04-27T05:17:34;101489.09;;;2.95;100.00
68793;BME280;55778;54.346;10.210;2023-04-27T05:19:59;101481.94;;;3.11;100.00
68793;BME280;55778;54.346;10.210;2023-04-27T05:22:25;101490.25;;;3.23;100.00
68793;BME280;55778;54.346;10.210;2023-04-27T05:24:50;101495.03;;;3.34;99.30
68793;BME280;55778;54.346;10.210;2023-04-27T05:27:16;101492.47;;;3.48;98.85
68793;BME280;55778;54.346;10.210;2023-04-27T05:29:41;101488.41;;;3.56;97.16
68793;BME280;55778;54.346;10.210;2023-04-27T05:32:06;101493.38;;;3.64;97.04
68793;BME280;55778;54.346;10.210;2023-04-27T05:34:32;101488.63;;;3.84;96.32
68793;BME280;55778;54.346;10.210;2023-04-27T05:36:57;101505.16;;;4.09;95.83
68793;BME280;55778;54.346;10.210;2023-04-27T05:39:22;101514.47;;;4.35;93.77
68793;BME280;55778;54.346;10.210;2023-04-27T05:41:48;101523.59;;;4.01;93.33
68793;BME280;55778;54.346;10.210;2023-04-27T05:44:13;101518.19;;;3.70;95.63
68793;BME280;55778;54.346;10.210;2023-04-27T05:46:39;101532.84;;;3.15;100.00
68793;BME280;55778;54.346;10.210;2023-04-27T05:49:04;101534.59;;;2.82;100.00
68793;BME280;55778;54.346;10.210;2023-04-27T05:51:31;101518.84;;;2.75;100.00
68793;BME280;55778;54.346;10.210;2023-04-27T05:53:57;101505.56;;;2.89;100.00
68793;BME280;55778;54.346;10.210;2023-04-27T05:56:24;101495.41;;;2.94;100.00
68793;BME280;55778;54.346;10.210;2023-04-27T05:58:49;101494.88;;;2.87;100.00
68793;BME280;55778;54.346;10.210;2023-04-27T06:01:15;101501.75;;;2.93;100.00
68793;BME280;55778;54.346;10.210;2023-04-27T06:03:40;101500.97;;;2.91;100.00
68793;BME280;55778;54.346;10.210;2023-04-27T06:06:06;101510.63;;;2.95;100.00
68793;BME280;55778;54.346;10.210;2023-04-27T06:08:31;101506.72;;;3.00;100.00
68793;BME280;55778;54.346;10.210;2023-04-27T06:10:56;101517.03;;;3.09;100.00
68793;BME280;55778;54.346;10.210;2023-04-27T06:13:22;101516.31;;;3.06;100.00
68793;BME280;55778;54.346;10.210;2023-04-27T06:15:47;101518.38;;;3.01;100.00
68793;BME280;55778;54.346;10.210;2023-04-27T06:18:13;101523.25;;;3.27;100.00
68793;BME280;55778;54.346;10.210;2023-04-27T06:20:38;101526.66;;;3.13;100.00
68793;BME280;55778;54.346;10.210;2023-04-27T06:23:04;101522.00;;;3.17;100.00
68793;BME280;55778;54.346;10.210;2023-04-27T06:25:29;101526.09;;;3.41;100.00
68793;BME280;55778;54.346;10.210;2023-04-27T06:27:56;101524.16;;;3.60;100.00
68793;BME280;55778;54.346;10.210;2023-04-27T06:30:22;101521.50;;;3.91;100.00
68793;BME280;55778;54.346;10.210;2023-04-27T06:32:48;101524.72;;;3.82;100.00
68793;BME280;55778;54.346;10.210;2023-04-27T06:35:14;101520.63;;;3.90;100.00
68793;BME280;55778;54.346;10.210;2023-04-27T06:37:39;101523.00;;;4.12;100.00
68793;BME280;55778;54.346;10.210;2023-04-27T06:40:05;101520.13;;;4.46;100.00
68793;BME280;55778;54.346;10.210;2023-04-27T06:42:32;101511.25;;;4.89;100.00
68793;BME280;55778;54.346;10.210;2023-04-27T06:44:57;101511.88;;;4.63;100.00
68793;BME280;55778;54.346;10.210;2023-04-27T06:47:23;101512.53;;;4.82;98.51
68793;BME280;55778;54.346;10.210;2023-04-27T06:49:48;101511.97;;;5.21;96.32
68793;BME280;55778;54.346;10.210;2023-04-27T06:52:14;101515.16;;;5.13;93.33
68793;BME280;55778;54.346;10.210;2023-04-27T06:54:39;101516.25;;;5.39;90.06
68793;BME280;55778;54.346;10.210;2023-04-27T06:57:05;101510.38;;;5.46;88.17
68793;BME280;55778;54.346;10.210;2023-04-27T06:59:31;101522.66;;;5.66;86.38
68793;BME280;55778;54.346;10.210;2023-04-27T07:01:57;101511.06;;;5.78;85.80
68793;BME280;55778;54.346;10.210;2023-04-27T07:04:22;101516.91;;;6.41;86.08
68793;BME280;55778;54.346;10.210;2023-04-27T07:06:48;101516.63;;;6.58;81.21
68793;BME280;55778;54.346;10.210;2023-04-27T07:09:13;101523.31;;;6.52;81.02
68793;BME280;55778;54.346;10.210;2023-04-27T07:11:39;101523.22;;;6.27;82.31
68793;BME280;55778;54.346;10.210;2023-04-27T07:14:05;101525.00;;;6.41;82.36
68793;BME280;55778;54.346;10.210;2023-04-27T07:16:30;101525.13;;;6.66;83.57
68793;BME280;55778;54.346;10.210;2023-04-27T07:18:55;101515.09;;;6.54;81.20
68793;BME280;55778;54.346;10.210;2023-04-27T07:21:21;101524.09;;;6.81;82.46
68793;BME280;55778;54.346;10.210;2023-04-27T07:23:46;101522.00;;;6.72;82.55
68793;BME280;55778;54.346;10.210;2023-04-27T07:26:11;101518.06;;;6.90;81.71
68793;BME280;55778;54.346;10.210;2023-04-27T07:28:37;101529.69;;;7.17;78.57
68793;BME280;55778;54.346;10.210;2023-04-27T07:31:04;101526.03;;;6.79;78.50
68793;BME280;55778;54.346;10.210;2023-04-27T07:33:31;101527.66;;;6.55;79.01
68793;BME280;55778;54.346;10.210;2023-04-27T07:35:56;101518.59;;;6.95;78.28
68793;BME280;55778;54.346;10.210;2023-04-27T07:38:22;101528.81;;;7.04;76.89
68793;BME280;55778;54.346;10.210;2023-04-27T07:40:47;101536.16;;;6.89;77.08
68793;BME280;55778;54.346;10.210;2023-04-27T07:43:14;101534.84;;;6.82;74.38
68793;BME280;55778;54.346;10.210;2023-04-27T07:45:40;101528.16;;;6.74;75.92
68793;BME280;55778;54.346;10.210;2023-04-27T07:48:06;101536.72;;;6.94;75.56
68793;BME280;55778;54.346;10.210;2023-04-27T07:50:31;101527.31;;;7.12;72.34
68793;BME280;55778;54.346;10.210;2023-04-27T07:52:58;101525.88;;;6.68;70.43
68793;BME280;55778;54.346;10.210;2023-04-27T07:55:24;101527.00;;;6.78;72.09
68793;BME280;55778;54.346;10.210;2023-04-27T07:57:54;101535.09;;;7.04;73.32
68793;BME280;55778;54.346;10.210;2023-04-27T08:00:20;101542.00;;;6.69;71.51
68793;BME280;55778;54.346;10.210;2023-04-27T08:02:46;101538.94;;;6.88;73.74
68793;BME280;55778;54.346;10.210;2023-04-27T08:05:11;101539.94;;;7.38;70.12
68793;BME280;55778;54.346;10.210;2023-04-27T08:07:37;101538.38;;;7.22;68.62
68793;BME280;55778;54.346;10.210;2023-04-27T08:10:03;101543.16;;;7.18;71.40
68793;BME280;55778;54.346;10.210;2023-04-27T08:12:28;101539.84;;;7.65;70.95
68793;BME280;55778;54.346;10.210;2023-04-27T08:14:54;101539.53;;;7.69;70.80
68793;BME280;55778;54.346;10.210;2023-04-27T08:17:19;101535.28;;;7.78;68.76
68793;BME280;55778;54.346;10.210;2023-04-27T08:19:46;101542.75;;;7.37;68.89
68793;BME280;55778;54.346;10.210;2023-04-27T08:22:11;101538.22;;;7.50;68.67
68793;BME280;55778;54.346;10.210;2023-04-27T08:24:37;101544.28;;;7.78;64.68
68793;BME280;55778;54.346;10.210;2023-04-27T08:27:02;101538.56;;;7.58;62.90
68793;BME280;55778;54.346;10.210;2023-04-27T08:29:28;101541.25;;;7.58;64.68
68793;BME280;55778;54.346;10.210;2023-04-27T08:31:53;101536.78;;;7.82;62.38
68793;BME280;55778;54.346;10.210;2023-04-27T08:34:19;101519.03;;;7.65;62.91
68793;BME280;55778;54.346;10.210;2023-04-27T08:36:44;101527.13;;;7.78;64.90
68793;BME280;55778;54.346;10.210;2023-04-27T08:39:09;101532.88;;;7.48;64.12
68793;BME280;55778;54.346;10.210;2023-04-27T08:41:35;101535.63;;;7.86;65.18
68793;BME280;55778;54.346;10.210;2023-04-27T08:44:01;101531.25;;;7.83;61.47
68793;BME280;55778;54.346;10.210;2023-04-27T08:46:26;101529.69;;;8.17;59.82
68793;BME280;55778;54.346;10.210;2023-04-27T08:48:52;101539.16;;;7.86;59.01
68793;BME280;55778;54.346;10.210;2023-04-27T08:51:19;101535.75;;;8.69;58.24
68793;BME280;55778;54.346;10.210;2023-04-27T08:53:52;101530.28;;;8.46;57.52
68793;BME280;55778;54.346;10.210;2023-04-27T08:56:18;101529.41;;;9.16;57.24
68793;BME280;55778;54.346;10.210;2023-04-27T08:58:44;101527.44;;;9.63;54.79
68793;BME280;55778;54.346;10.210;2023-04-27T09:01:10;101528.03;;;9.56;52.62
68793;BME280;55778;54.346;10.210;2023-04-27T09:03:36;101514.88;;;10.29;51.22
68793;BME280;55778;54.346;10.210;2023-04-27T09:06:03;101517.88;;;10.68;51.00
68793;BME280;55778;54.346;10.210;2023-04-27T09:11:07;101516.09;;;8.66;55.73
68793;BME280;55778;54.346;10.210;2023-04-27T09:13:37;101517.91;;;8.78;54.09
68793;BME280;55778;54.346;10.210;2023-04-27T09:16:03;101505.56;;;8.85;54.85
68793;BME280;55778;54.346;10.210;2023-04-27T09:18:28;101517.44;;;9.75;54.07
68793;BME280;55778;54.346;10.210;2023-04-27T09:20:59;101524.88;;;9.95;55.18
68793;BME280;55778;54.346;10.210;2023-04-27T09:23:29;101523.50;;;9.78;55.20
68793;BME280;55778;54.346;10.210;2023-04-27T09:26:00;101514.31;;;9.57;54.32
68793;BME280;55778;54.346;10.210;2023-04-27T09:28:27;101518.53;;;9.16;56.38
68793;BME280;55778;54.346;10.210;2023-04-27T09:30:54;101520.16;;;9.75;56.95
68793;BME280;55778;54.346;10.210;2023-04-27T09:33:27;101509.38;;;9.06;55.08
68793;BME280;55778;54.346;10.210;2023-04-27T09:35:54;101510.59;;;9.02;54.61
68793;BME280;55778;54.346;10.210;2023-04-27T09:38:22;101516.22;;;8.28;49.06
68793;BME280;55778;54.346;10.210;2023-04-27T09:40:48;101518.44;;;8.23;51.54
68793;BME280;55778;54.346;10.210;2023-04-27T09:43:15;101522.75;;;8.26;53.89
68793;BME280;55778;54.346;10.210;2023-04-27T09:45:41;101523.94;;;8.09;54.51
68793;BME280;55778;54.346;10.210;2023-04-27T09:48:07;101513.88;;;7.98;55.12
68793;BME280;55778;54.346;10.210;2023-04-27T09:50:38;101512.84;;;8.37;53.89
68793;BME280;55778;54.346;10.210;2023-04-27T09:53:15;101521.50;;;9.13;52.90
68793;BME280;55778;54.346;10.210;2023-04-27T10:09:19;101518.19;;;9.20;51.55
68793;BME280;55778;54.346;10.210;2023-04-27T10:11:48;101511.25;;;9.84;51.42
68793;BME280;55778;54.346;10.210;2023-04-27T10:14:21;101513.09;;;9.50;51.61
68793;BME280;55778;54.346;10.210;2023-04-27T10:16:55;101508.53;;;9.16;50.76
68793;BME280;55778;54.346;10.210;2023-04-27T10:19:22;101500.47;;;8.57;48.71
68793;BME280;55778;54.346;10.210;2023-04-27T10:24:16;101515.16;;;9.01;51.79
68793;BME280;55778;54.346;10.210;2023-04-27T10:26:46;101518.09;;;8.98;52.28
68793;BME280;55778;54.346;10.210;2023-04-27T10:29:12;101517.81;;;8.67;52.32
68793;BME280;55778;54.346;10.210;2023-04-27T10:31:46;101513.97;;;8.58;52.80
68793;BME280;55778;54.346;10.210;2023-04-27T10:34:16;101514.94;;;8.34;53.67
68793;BME280;55778;54.346;10.210;2023-04-27T10:36:41;101523.44;;;8.76;54.71
68793;BME280;55778;54.346;10.210;2023-04-27T10:39:33;101519.00;;;8.75;55.40
68793;BME280;55778;54.346;10.210;2023-04-27T10:41:59;101526.19;;;8.64;55.89
68793;BME280;55778;54.346;10.210;2023-04-27T10:44:27;101527.66;;;8.80;54.97
68793;BME280;55778;54.346;10.210;2023-04-27T10:46:53;101527.41;;;8.36;54.54
68793;BME280;55778;54.346;10.210;2023-04-27T10:49:20;101529.44;;;8.45;54.41
68793;BME280;55778;54.346;10.210;2023-04-27T10:51:48;101526.72;;;8.45;54.62
68793;BME280;55778;54.346;10.210;2023-04-27T10:54:14;101535.22;;;8.28;55.32
68793;BME280;55778;54.346;10.210;2023-04-27T10:56:39;101527.94;;;8.16;55.05
68793;BME280;55778;54.346;10.210;2023-04-27T10:59:05;101531.63;;;8.40;54.29
68793;BME280;55778;54.346;10.210;2023-04-27T11:01:32;101544.59;;;8.60;54.84
68793;BME280;55778;54.346;10.210;2023-04-27T11:03:59;101547.28;;;8.37;53.91
68793;BME280;55778;54.346;10.210;2023-04-27T11:06:25;101536.09;;;8.41;54.16
68793;BME280;55778;54.346;10.210;2023-04-27T11:08:52;101536.00;;;8.30;53.72
68793;BME280;55778;54.346;10.210;2023-04-27T11:11:18;101539.16;;;8.24;54.62
68793;BME280;55778;54.346;10.210;2023-04-27T11:13:44;101527.69;;;8.44;54.92
68793;BME280;55778;54.346;10.210;2023-04-27T11:16:12;101527.94;;;8.88;53.78
68793;BME280;55778;54.346;10.210;2023-04-27T11:18:39;101539.19;;;9.18;51.78
68793;BME280;55778;54.346;10.210;2023-04-27T11:21:13;101546.00;;;9.69;52.45
68793;BME280;55778;54.346;10.210;2023-04-27T11:23:40;101546.91;;;9.92;50.07
68793;BME280;55778;54.346;10.210;2023-04-27T11:28:34;101548.78;;;9.00;52.90
68793;BME280;55778;54.346;10.210;2023-04-27T11:30:59;101546.66;;;8.57;53.26
68793;BME280;55778;54.346;10.210;2023-04-27T11:33:26;101554.72;;;8.46;53.95
68793;BME280;55778;54.346;10.210;2023-04-27T11:35:52;101555.59;;;8.46;54.19
68793;BME280;55778;54.346;10.210;2023-04-27T11:38:18;101544.03;;;8.68;53.15
68793;BME280;55778;54.346;10.210;2023-04-27T11:40:45;101544.50;;;8.62;53.33
68793;BME280;55778;54.346;10.210;2023-04-27T11:43:14;101545.44;;;8.61;54.11
68793;BME280;55778;54.346;10.210;2023-04-27T11:45:43;101541.59;;;8.76;53.78
68793;BME280;55778;54.346;10.210;2023-04-27T11:48:15;101550.16;;;8.82;53.92
68793;BME280;55778;54.346;10.210;2023-04-27T11:50:45;101568.16;;;8.60;54.96
68793;BME280;55778;54.346;10.210;2023-04-27T11:53:12;101565.69;;;8.44;60.80
68793;BME280;55778;54.346;10.210;2023-04-27T11:55:37;101571.25;;;8.79;64.03
68793;BME280;55778;54.346;10.210;2023-04-27T11:58:05;101579.06;;;8.83;64.41
68793;BME280;55778;54.346;10.210;2023-04-27T12:00:31;101580.06;;;8.82;64.97
68793;BME280;55778;54.346;10.210;2023-04-27T12:02:57;101574.31;;;8.98;65.39
68793;BME280;55778;54.346;10.210;2023-04-27T12:05:22;101571.88;;;9.29;64.31
68793;BME280;55778;54.346;10.210;2023-04-27T12:07:48;101581.06;;;9.16;65.00
68793;BME280;55778;54.346;10.210;2023-04-27T12:10:13;101582.75;;;9.29;62.93
68793;BME280;55778;54.346;10.210;2023-04-27T12:12:38;101582.81;;;8.93;64.87
68793;BME280;55778;54.346;10.210;2023-04-27T12:15:04;101576.31;;;9.30;64.15
68793;BME280;55778;54.346;10.210;2023-04-27T12:17:31;101588.78;;;9.22;63.60
68793;BME280;55778;54.346;10.210;2023-04-27T12:19:56;101591.22;;;9.48;62.52
68793;BME280;55778;54.346;10.210;2023-04-27T12:22:22;101585.28;;;8.73;66.11
68793;BME280;55778;54.346;10.210;2023-04-27T12:24:47;101585.69;;;8.56;66.57
68793;BME280;55778;54.346;10.210;2023-04-27T12:27:13;101580.06;;;8.82;65.48
68793;BME280;55778;54.346;10.210;2023-04-27T12:29:38;101590.66;;;9.32;63.56
68793;BME280;55778;54.346;10.210;2023-04-27T12:32:04;101586.63;;;9.14;62.88
68793;BME280;55778;54.346;10.210;2023-04-27T12:34:30;101582.56;;;9.43;61.82
68793;BME280;55778;54.346;10.210;2023-04-27T12:36:55;101579.38;;;9.26;63.45
68793;BME280;55778;54.346;10.210;2023-04-27T12:39:22;101589.59;;;8.88;62.35
68793;BME280;55778;54.346;10.210;2023-04-27T12:41:50;101587.78;;;8.76;62.82
68793;BME280;55778;54.346;10.210;2023-04-27T12:44:17;101588.31;;;8.81;61.29
68793;BME280;55778;54.346;10.210;2023-04-27T12:46:44;101597.47;;;8.31;60.33
68793;BME280;55778;54.346;10.210;2023-04-27T12:49:10;101588.13;;;8.23;60.93
68793;BME280;55778;54.346;10.210;2023-04-27T12:51:37;101601.88;;;8.45;61.56
68793;BME280;55778;54.346;10.210;2023-04-27T12:54:03;101600.22;;;8.67;60.62
68793;BME280;55778;54.346;10.210;2023-04-27T12:56:29;101607.34;;;8.81;60.18
68793;BME280;55778;54.346;10.210;2023-04-27T12:58:55;101608.03;;;8.95;58.16
68793;BME280;55778;54.346;10.210;2023-04-27T13:01:21;101602.84;;;8.56;60.38